createdAt,value
2023-05-20T00:00:12.826Z,11.86
2023-05-20T00:02:39.282Z,12.55
2023-05-20T00:05:05.641Z,12.21
2023-05-20T00:07:32.012Z,11.86
2023-05-20T00:09:58.310Z,11.26
2023-05-20T00:12:24.614Z,11.83
2023-05-20T00:14:50.973Z,12.04
2023-05-20T00:17:17.315Z,12.33
2023-05-20T00:19:43.641Z,12.24
2023-05-20T00:22:10.029Z,12.27
2023-05-20T00:24:36.362Z,12.06
2023-05-20T00:27:02.696Z,11.83
2023-05-20T00:29:29.053Z,12.38
2023-05-20T00:31:55.416Z,11.81
2023-05-20T00:34:21.754Z,11.93
2023-05-20T00:36:48.104Z,11.99
2023-05-20T00:39:14.436Z,11.87
2023-05-20T00:41:40.769Z,11.92
2023-05-20T00:44:07.109Z,12.15
2023-05-20T00:46:33.494Z,12.00
2023-05-20T00:48:59.847Z,12.25
2023-05-20T00:51:26.164Z,11.86
2023-05-20T00:53:52.504Z,12.18
2023-05-20T00:56:18.839Z,12.24
2023-05-20T00:58:45.194Z,12.21
2023-05-20T01:01:11.517Z,12.49
2023-05-20T01:03:37.970Z,12.65
2023-05-20T01:06:04.410Z,12.98
2023-05-20T01:08:30.716Z,12.89
2023-05-20T01:10:57.295Z,12.93
2023-05-20T01:13:23.633Z,12.66
2023-05-20T01:15:49.976Z,12.33
2023-05-20T01:18:16.282Z,13.24
2023-05-20T01:20:42.581Z,13.12
2023-05-20T01:23:08.909Z,12.96
2023-05-20T01:25:35.361Z,12.61
2023-05-20T01:28:01.785Z,12.61
2023-05-20T01:30:28.116Z,12.49
2023-05-20T01:32:54.499Z,12.72
2023-05-20T01:35:20.864Z,12.31
2023-05-20T01:37:47.157Z,12.55
2023-05-20T01:40:13.630Z,12.89
2023-05-20T01:42:39.965Z,12.91
2023-05-20T01:45:06.296Z,12.45
2023-05-20T01:47:32.632Z,12.22
2023-05-20T01:49:58.983Z,12.65
2023-05-20T01:52:25.378Z,13.19
2023-05-20T01:54:51.736Z,12.78
2023-05-20T01:57:18.057Z,12.62
2023-05-20T01:59:44.410Z,13.14
2023-05-20T02:02:10.735Z,13.01
2023-05-20T02:04:37.090Z,13.17
2023-05-20T02:07:03.393Z,13.18
2023-05-20T02:09:29.811Z,12.66
2023-05-20T02:11:56.146Z,13.26
2023-05-20T02:14:22.481Z,12.73
2023-05-20T02:16:48.961Z,13.70
2023-05-20T02:19:15.413Z,13.02
2023-05-20T02:21:41.764Z,12.76
2023-05-20T02:24:08.099Z,12.96
2023-05-20T02:26:34.394Z,13.05
2023-05-20T02:29:00.698Z,12.99
2023-05-20T02:31:26.995Z,13.12
2023-05-20T02:33:53.310Z,13.04
2023-05-20T02:36:19.641Z,13.41
2023-05-20T02:38:45.945Z,13.12
2023-05-20T02:41:12.254Z,13.08
2023-05-20T02:43:38.607Z,13.51
2023-05-20T02:46:04.981Z,13.59
2023-05-20T02:48:31.356Z,12.85
2023-05-20T02:50:57.729Z,13.38
2023-05-20T02:53:24.021Z,12.95
2023-05-20T02:55:50.335Z,12.96
2023-05-20T02:58:16.635Z,13.21
2023-05-20T03:00:42.936Z,13.46
2023-05-20T03:03:09.288Z,13.10
2023-05-20T03:05:35.823Z,13.38
2023-05-20T03:08:02.268Z,12.50
2023-05-20T03:10:28.566Z,13.50
2023-05-20T03:12:54.888Z,13.99
2023-05-20T03:15:21.196Z,13.83
2023-05-20T03:17:47.550Z,13.68
2023-05-20T03:20:13.891Z,13.44
2023-05-20T03:22:40.223Z,13.08
2023-05-20T03:25:06.533Z,13.06
2023-05-20T03:27:32.914Z,13.05
2023-05-20T03:29:59.227Z,13.16
2023-05-20T03:32:25.561Z,13.25
2023-05-20T03:34:51.869Z,12.95
2023-05-20T03:37:18.201Z,13.24
2023-05-20T03:39:44.509Z,13.41
2023-05-20T03:42:10.825Z,14.33
2023-05-20T03:44:37.155Z,13.81
2023-05-20T03:47:03.606Z,14.68
2023-05-20T03:49:30.050Z,14.08
2023-05-20T03:51:56.363Z,13.88
2023-05-20T03:54:22.708Z,13.47
2023-05-20T03:56:49.007Z,13.17
2023-05-20T03:59:15.424Z,13.34
2023-05-20T04:01:41.779Z,13.33
2023-05-20T04:04:08.161Z,13.26
2023-05-20T04:06:34.513Z,13.37
2023-05-20T04:09:00.836Z,13.60
2023-05-20T04:11:27.152Z,14.37
2023-05-20T04:13:53.488Z,14.20
2023-05-20T04:16:19.868Z,13.56
2023-05-20T04:18:46.287Z,14.05
2023-05-20T04:21:12.693Z,13.69
2023-05-20T04:23:39.056Z,13.43
2023-05-20T04:26:05.385Z,14.23
2023-05-20T04:28:31.687Z,13.99
2023-05-20T04:30:57.991Z,14.05
2023-05-20T04:33:24.300Z,14.37
2023-05-20T04:35:50.648Z,14.16
2023-05-20T04:38:16.965Z,13.78
2023-05-20T04:40:43.287Z,13.85
2023-05-20T04:43:09.622Z,14.14
2023-05-20T04:45:36.008Z,14.12
2023-05-20T04:48:02.469Z,13.83
2023-05-20T04:50:28.823Z,13.92
2023-05-20T04:52:55.196Z,14.49
2023-05-20T04:55:21.500Z,13.93
2023-05-20T04:57:47.835Z,13.92
2023-05-20T05:00:14.171Z,14.15
2023-05-20T05:02:40.548Z,14.30
2023-05-20T05:05:07.104Z,14.24
2023-05-20T05:07:33.484Z,13.96
2023-05-20T05:09:59.859Z,14.11
2023-05-20T05:12:26.196Z,14.10
2023-05-20T05:14:52.504Z,14.14
2023-05-20T05:17:18.818Z,14.68
2023-05-20T05:19:45.106Z,14.34
2023-05-20T05:22:11.431Z,14.51
2023-05-20T05:24:37.742Z,13.74
2023-05-20T05:27:04.037Z,13.48
2023-05-20T05:29:30.361Z,14.27
2023-05-20T05:31:56.711Z,13.91
2023-05-20T05:34:23.078Z,14.41
2023-05-20T05:36:49.423Z,14.36
2023-05-20T05:39:15.729Z,14.81
2023-05-20T05:41:42.053Z,14.90
2023-05-20T05:44:08.386Z,14.67
2023-05-20T05:46:34.786Z,14.83
2023-05-20T05:49:01.155Z,14.92
2023-05-20T05:51:27.469Z,14.65
2023-05-20T05:53:53.771Z,14.34
2023-05-20T05:56:20.089Z,14.56
2023-05-20T05:58:46.425Z,14.68
2023-05-20T06:01:12.799Z,14.95
2023-05-20T06:03:39.219Z,14.63
2023-05-20T06:06:05.633Z,15.00
2023-05-20T06:08:31.981Z,14.66
2023-05-20T06:10:58.329Z,14.64
2023-05-20T06:13:24.650Z,14.64
2023-05-20T06:15:50.976Z,14.98
2023-05-20T06:18:17.320Z,15.15
2023-05-20T06:20:43.652Z,14.73
2023-05-20T06:23:10.007Z,14.54
2023-05-20T06:25:36.355Z,15.11
2023-05-20T06:28:02.691Z,14.89
2023-05-20T06:30:29.021Z,14.54
2023-05-20T06:32:55.453Z,15.09
2023-05-20T06:35:21.837Z,15.26
2023-05-20T06:37:48.287Z,14.80
2023-05-20T06:40:14.672Z,15.04
2023-05-20T06:42:40.992Z,14.93
2023-05-20T06:45:07.323Z,15.02
2023-05-20T06:47:33.690Z,15.57
2023-05-20T06:50:00.071Z,15.12
2023-05-20T06:52:26.433Z,15.12
2023-05-20T06:54:52.768Z,15.01
2023-05-20T06:57:19.093Z,15.73
2023-05-20T06:59:45.433Z,14.82
2023-05-20T07:02:11.784Z,14.98
2023-05-20T07:04:38.187Z,15.40
2023-05-20T07:07:04.508Z,15.42
2023-05-20T07:09:30.831Z,14.57
2023-05-20T07:11:57.151Z,13.67
2023-05-20T07:14:23.460Z,13.14
2023-05-20T07:16:49.798Z,12.78
2023-05-20T07:19:16.131Z,11.79
2023-05-20T07:21:42.529Z,9.93
2023-05-20T07:24:08.870Z,9.92
2023-05-20T07:26:35.193Z,10.16
2023-05-20T07:29:01.536Z,11.48
2023-05-20T07:31:27.919Z,10.64
2023-05-20T07:33:54.224Z,10.36
2023-05-20T07:36:20.552Z,9.89
2023-05-20T07:38:57.027Z,9.18
2023-05-20T07:41:29.683Z,9.51
2023-05-20T07:43:56.028Z,9.74
2023-05-20T07:46:22.432Z,9.66
2023-05-20T07:48:48.776Z,10.40
2023-05-20T07:51:15.063Z,9.84
2023-05-20T07:53:41.370Z,10.53
2023-05-20T07:56:07.775Z,11.26
2023-05-20T07:58:34.112Z,11.37
2023-05-20T08:01:00.419Z,10.60
2023-05-20T08:03:26.824Z,10.20
2023-05-20T08:05:53.295Z,10.54
2023-05-20T08:08:19.603Z,10.20
2023-05-20T08:10:45.930Z,10.50
2023-05-20T08:13:12.273Z,9.90
2023-05-20T08:15:38.648Z,9.60
2023-05-20T08:18:05.238Z,11.66
2023-05-20T08:20:31.745Z,13.60
2023-05-20T08:22:58.174Z,13.29
2023-05-20T08:25:24.505Z,13.21
2023-05-20T08:27:50.825Z,13.99
2023-05-20T08:30:17.247Z,14.28
2023-05-20T08:32:43.616Z,13.82
2023-05-20T08:35:09.936Z,12.70
2023-05-20T08:37:36.299Z,13.17
2023-05-20T08:40:02.655Z,14.10
2023-05-20T08:42:28.967Z,13.83
2023-05-20T08:44:55.320Z,13.17
2023-05-20T08:47:21.619Z,13.43
2023-05-20T08:49:47.982Z,12.75
2023-05-20T08:52:14.277Z,12.74
2023-05-20T08:54:40.605Z,9.32
2023-05-20T08:57:06.911Z,9.94
2023-05-20T08:59:33.197Z,8.86
2023-05-20T09:01:59.517Z,7.99
2023-05-20T09:04:25.889Z,8.70
2023-05-20T09:06:52.240Z,8.36
2023-05-20T09:09:18.554Z,8.36
2023-05-20T09:11:44.938Z,10.73
2023-05-20T09:14:11.310Z,9.45
2023-05-20T09:16:37.691Z,8.25
2023-05-20T09:19:04.101Z,7.88
2023-05-20T09:21:30.479Z,8.25
2023-05-20T09:23:56.777Z,7.78
2023-05-20T09:26:23.093Z,12.39
2023-05-20T09:28:49.413Z,14.50
2023-05-20T09:31:15.822Z,13.31
2023-05-20T09:33:42.248Z,12.14
2023-05-20T09:36:08.648Z,12.29
2023-05-20T09:38:35.014Z,13.26
2023-05-20T09:41:01.385Z,14.25
2023-05-20T09:43:27.800Z,12.30
2023-05-20T09:45:54.098Z,9.65
2023-05-20T09:48:20.546Z,9.13
2023-05-20T09:50:46.872Z,9.60
2023-05-20T09:53:13.194Z,10.17
2023-05-20T09:55:39.479Z,10.04
2023-05-20T09:58:05.825Z,9.34
2023-05-20T10:00:32.209Z,9.51
2023-05-20T10:02:58.650Z,10.52
2023-05-20T10:05:24.984Z,10.66
2023-05-20T10:07:51.271Z,11.21
2023-05-20T10:10:17.680Z,10.66
2023-05-20T10:12:44.022Z,11.02
2023-05-20T10:15:10.319Z,10.41
2023-05-20T10:17:36.667Z,10.55
2023-05-20T10:20:04.560Z,10.65
2023-05-20T10:22:32.326Z,10.94
2023-05-20T10:24:58.618Z,10.76
2023-05-20T10:27:24.937Z,10.86
2023-05-20T10:29:51.530Z,11.16
2023-05-20T10:32:17.966Z,10.64
2023-05-20T10:34:44.333Z,11.03
2023-05-20T10:37:10.659Z,11.10
2023-05-20T10:39:37.002Z,10.77
2023-05-20T10:42:03.322Z,11.75
2023-05-20T10:44:29.743Z,11.33
2023-05-20T10:49:27.713Z,11.85
2023-05-20T10:51:54.399Z,11.79
2023-05-20T10:54:20.752Z,11.92
2023-05-20T10:56:47.085Z,11.51
2023-05-20T10:59:13.409Z,11.62
2023-05-20T11:01:39.818Z,11.44
2023-05-20T11:04:06.243Z,11.66
2023-05-20T11:06:32.608Z,11.40
2023-05-20T11:08:58.924Z,10.51
2023-05-20T11:11:25.243Z,10.84
2023-05-20T11:13:51.654Z,10.74
2023-05-20T11:16:18.027Z,10.85
2023-05-20T11:18:44.374Z,11.40
2023-05-20T11:21:10.713Z,11.22
2023-05-20T11:26:03.536Z,11.49
2023-05-20T11:28:29.867Z,11.34
2023-05-20T11:30:56.230Z,10.85
2023-05-20T11:33:22.592Z,10.90
2023-05-20T11:35:48.980Z,10.81
2023-05-20T11:38:15.285Z,11.12
2023-05-20T11:40:49.767Z,11.62
2023-05-20T11:43:17.085Z,11.92
2023-05-20T11:45:43.457Z,11.55
2023-05-20T11:48:09.832Z,11.57
2023-05-20T11:50:36.336Z,11.39
2023-05-20T11:53:02.708Z,12.29
2023-05-20T11:55:29.012Z,13.04
2023-05-20T11:57:55.327Z,12.84
2023-05-20T12:00:21.737Z,12.52
2023-05-20T12:02:48.168Z,11.82
2023-05-20T12:05:14.566Z,12.26
2023-05-20T12:07:40.884Z,12.13
2023-05-20T12:10:07.215Z,11.27
2023-05-20T12:12:33.536Z,11.06
2023-05-20T12:14:59.927Z,11.43
2023-05-20T12:17:26.268Z,10.74
2023-05-20T12:19:52.591Z,10.78
2023-05-20T12:22:19.340Z,10.74
2023-05-20T12:24:45.643Z,10.36
2023-05-20T12:27:11.975Z,10.90
2023-05-20T12:29:38.307Z,10.32
2023-05-20T12:32:04.741Z,10.71
2023-05-20T12:34:31.113Z,10.52
2023-05-20T12:36:57.437Z,10.22
2023-05-20T12:39:23.765Z,10.14
2023-05-20T12:41:50.076Z,10.61
2023-05-20T12:44:16.374Z,10.45
2023-05-20T12:46:42.814Z,9.97
2023-05-20T12:49:09.168Z,9.94
2023-05-20T12:51:35.553Z,9.97
2023-05-20T12:54:01.878Z,10.03
2023-05-20T12:56:28.278Z,11.64
2023-05-20T12:58:54.595Z,11.70
2023-05-20T13:01:20.951Z,11.10
2023-05-20T13:03:47.342Z,10.91
2023-05-20T13:06:13.739Z,11.01
2023-05-20T13:08:40.033Z,10.82
2023-05-20T13:11:07.473Z,10.41
2023-05-20T13:13:33.798Z,10.76
2023-05-20T13:16:00.127Z,10.73
2023-05-20T13:18:26.464Z,10.42
2023-05-20T13:20:52.802Z,11.36
2023-05-20T13:23:19.123Z,11.16
2023-05-20T13:25:45.439Z,10.77
2023-05-20T13:28:11.772Z,10.53
2023-05-20T13:30:38.399Z,10.87
2023-05-20T13:33:05.054Z,10.80
2023-05-20T13:35:31.444Z,10.07
2023-05-20T13:37:57.836Z,10.30
2023-05-20T13:40:24.154Z,10.72
2023-05-20T13:42:50.520Z,10.79
2023-05-20T13:45:16.915Z,10.36
2023-05-20T13:47:43.274Z,10.37
2023-05-20T13:50:09.621Z,11.28
2023-05-20T13:52:35.909Z,10.53
2023-05-20T13:55:02.228Z,10.76
2023-05-20T13:57:28.553Z,11.37
2023-05-20T13:59:54.882Z,10.70
2023-05-20T14:02:21.206Z,11.31
2023-05-20T14:04:47.547Z,10.64
2023-05-20T14:07:13.890Z,11.74
2023-05-20T14:09:40.214Z,11.23
2023-05-20T14:12:06.563Z,11.63
2023-05-20T14:14:32.909Z,11.04
2023-05-20T14:16:59.211Z,10.62
2023-05-20T14:19:26.011Z,10.28
2023-05-20T14:21:52.515Z,10.71
2023-05-20T14:24:19.604Z,11.40
2023-05-20T14:26:47.109Z,11.06
2023-05-20T14:29:13.427Z,10.78
2023-05-20T14:31:39.883Z,11.43
2023-05-20T14:34:06.211Z,11.21
2023-05-20T14:36:32.530Z,11.06
2023-05-20T14:38:58.880Z,11.44
2023-05-20T14:41:25.220Z,12.58
2023-05-20T14:43:51.552Z,12.17
2023-05-20T14:46:17.926Z,11.50
2023-05-20T14:48:44.329Z,10.91
2023-05-20T14:51:10.697Z,10.86
2023-05-20T14:53:37.053Z,11.06
2023-05-20T14:56:03.360Z,10.27
2023-05-20T14:58:29.670Z,10.56
2023-05-20T15:00:55.977Z,10.13
2023-05-20T15:03:22.385Z,10.04
2023-05-20T15:05:48.775Z,10.67
2023-05-20T15:08:15.084Z,11.13
2023-05-20T15:10:41.429Z,10.17
2023-05-20T15:13:07.752Z,10.05
2023-05-20T15:15:34.098Z,10.69
2023-05-20T15:18:00.583Z,10.57
2023-05-20T15:20:26.925Z,10.61
2023-05-20T15:22:53.325Z,10.32
2023-05-20T15:25:19.653Z,10.57
2023-05-20T15:27:45.933Z,11.41
2023-05-20T15:30:12.261Z,11.54
2023-05-20T15:32:38.665Z,11.56
2023-05-20T15:35:05.035Z,11.57
2023-05-20T15:37:31.372Z,11.25
2023-05-20T15:39:57.687Z,10.69
2023-05-20T15:42:24.042Z,11.83
2023-05-20T15:44:50.396Z,11.95
2023-05-20T15:47:16.724Z,12.36
2023-05-20T15:49:43.070Z,12.15
2023-05-20T15:52:09.413Z,12.45
2023-05-20T15:54:35.748Z,11.54
2023-05-20T15:57:02.065Z,11.76
2023-05-20T15:59:28.419Z,11.62
2023-05-20T16:01:54.752Z,11.61
2023-05-20T16:04:21.255Z,10.81
2023-05-20T16:06:47.711Z,11.51
2023-05-20T16:09:14.056Z,11.64
2023-05-20T16:11:40.395Z,11.61
2023-05-20T16:14:06.723Z,11.94
2023-05-20T16:16:35.680Z,11.68
2023-05-20T16:19:02.509Z,11.56
2023-05-20T16:21:28.841Z,11.80
2023-05-20T16:23:55.166Z,12.14
2023-05-20T16:26:21.497Z,12.14
2023-05-20T16:28:47.820Z,12.01
2023-05-20T16:31:14.171Z,12.22
2023-05-20T16:33:40.522Z,12.54
2023-05-20T16:36:06.838Z,12.64
2023-05-20T16:38:33.150Z,11.90
2023-05-20T16:40:59.481Z,11.98
2023-05-20T16:43:25.800Z,12.92
2023-05-20T16:45:52.202Z,11.96
2023-05-20T16:48:18.571Z,11.60
2023-05-20T16:50:44.869Z,12.36
2023-05-20T16:53:11.170Z,12.22
2023-05-20T16:55:37.466Z,12.81
2023-05-20T16:58:03.763Z,11.94
2023-05-20T17:00:30.069Z,12.24
2023-05-20T17:02:56.485Z,11.92
2023-05-20T17:05:22.820Z,12.20
2023-05-20T17:07:49.121Z,12.74
2023-05-20T17:10:15.502Z,13.64
2023-05-20T17:12:41.806Z,13.12
2023-05-20T17:15:08.161Z,13.14
2023-05-20T17:17:34.505Z,12.85
2023-05-20T17:20:00.960Z,13.33
2023-05-20T17:22:27.607Z,12.94
2023-05-20T17:24:53.924Z,13.79
2023-05-20T17:27:20.228Z,13.23
2023-05-20T17:29:46.565Z,13.41
2023-05-20T17:32:12.915Z,13.15
2023-05-20T17:34:39.242Z,13.09
2023-05-20T17:37:05.570Z,12.54
2023-05-20T17:39:31.918Z,13.77
2023-05-20T17:41:58.264Z,13.97
2023-05-20T17:44:24.580Z,14.00
2023-05-20T17:46:50.962Z,13.29
2023-05-20T17:49:17.294Z,12.88
2023-05-20T17:51:43.625Z,13.25
2023-05-20T17:54:09.945Z,13.76
2023-05-20T17:56:36.293Z,13.40
2023-05-20T17:59:02.641Z,13.28
2023-05-20T18:01:28.992Z,13.01
2023-05-20T18:03:55.434Z,13.52
2023-05-20T18:06:21.891Z,13.88
2023-05-20T18:08:48.195Z,13.66
2023-05-20T18:11:14.523Z,13.42
2023-05-20T18:13:40.862Z,14.00
2023-05-20T18:16:07.229Z,12.74
2023-05-20T18:18:33.647Z,13.11
2023-05-20T18:20:59.962Z,12.94
2023-05-20T18:23:26.293Z,12.75
2023-05-20T18:25:52.626Z,13.24
2023-05-20T18:28:18.936Z,13.05
2023-05-20T18:30:45.249Z,13.00
2023-05-20T18:33:11.730Z,12.62
2023-05-20T18:35:38.086Z,12.83
2023-05-20T18:38:04.399Z,12.95
2023-05-20T18:40:30.706Z,12.74
2023-05-20T18:42:57.007Z,13.13
2023-05-20T18:45:23.355Z,13.04
2023-05-20T18:47:49.724Z,13.46
2023-05-20T18:50:16.075Z,12.91
2023-05-20T18:52:42.414Z,12.93
2023-05-20T18:55:08.721Z,12.93
2023-05-20T18:57:35.036Z,12.85
2023-05-20T19:00:01.370Z,13.20
2023-05-20T19:02:27.735Z,13.50
2023-05-20T19:04:54.161Z,13.24
2023-05-20T19:07:20.526Z,13.85
2023-05-20T19:09:46.853Z,13.99
2023-05-20T19:12:13.205Z,13.74
2023-05-20T19:14:39.519Z,13.28
2023-05-20T19:17:05.912Z,13.86
2023-05-20T19:19:32.412Z,14.02
2023-05-20T19:21:58.854Z,13.01
2023-05-20T19:24:25.185Z,13.49
2023-05-20T19:26:51.487Z,13.58
2023-05-20T19:29:17.849Z,13.29
2023-05-20T19:31:44.214Z,13.31
2023-05-20T19:34:10.525Z,13.83
2023-05-20T19:36:36.837Z,13.20
2023-05-20T19:39:03.135Z,13.55
2023-05-20T19:41:29.551Z,13.86
2023-05-20T19:43:55.879Z,14.25
2023-05-20T19:46:22.222Z,13.40
2023-05-20T19:48:48.552Z,14.36
2023-05-20T19:51:14.899Z,14.38
2023-05-20T19:53:41.246Z,13.79
2023-05-20T19:56:07.587Z,14.00
2023-05-20T19:58:33.935Z,14.65
2023-05-20T20:01:00.265Z,14.75
2023-05-20T20:03:26.566Z,14.88
2023-05-20T20:05:52.941Z,15.07
2023-05-20T20:08:19.316Z,16.27
2023-05-20T20:10:45.709Z,16.42
2023-05-20T20:13:12.017Z,17.29
2023-05-20T20:15:38.602Z,16.06
2023-05-20T20:18:05.161Z,14.93
2023-05-20T20:20:31.551Z,14.87
2023-05-20T20:22:57.990Z,15.40
2023-05-20T20:25:24.341Z,15.47
2023-05-20T20:27:50.657Z,15.76
2023-05-20T20:30:17.029Z,14.76
2023-05-20T20:32:43.408Z,15.13
2023-05-20T20:35:09.762Z,14.95
2023-05-20T20:37:36.109Z,15.08
2023-05-20T20:40:02.442Z,14.46
2023-05-20T20:42:28.741Z,14.51
2023-05-20T20:44:55.048Z,14.98
2023-05-20T20:47:21.409Z,14.36
2023-05-20T20:49:47.843Z,15.39
2023-05-20T20:52:14.222Z,14.67
2023-05-20T20:54:42.965Z,15.16
2023-05-20T20:57:09.766Z,15.48
2023-05-20T20:59:36.081Z,14.82
2023-05-20T21:02:02.406Z,14.33
2023-05-20T21:04:28.758Z,14.84
2023-05-20T21:06:55.113Z,14.83
2023-05-20T21:09:21.517Z,15.50
2023-05-20T21:11:47.841Z,15.72
2023-05-20T21:14:14.394Z,16.10
2023-05-20T21:16:40.737Z,15.79
2023-05-20T21:19:07.133Z,16.20
2023-05-20T21:21:33.599Z,16.44
2023-05-20T21:23:59.944Z,16.08
2023-05-20T21:26:26.258Z,15.83
2023-05-20T21:28:52.567Z,15.31
2023-05-20T21:31:18.991Z,15.73
2023-05-20T21:33:45.369Z,16.00
2023-05-20T21:36:12.140Z,15.70
2023-05-20T21:38:38.540Z,16.05
2023-05-20T21:41:04.870Z,15.78
2023-05-20T21:43:31.223Z,15.97
2023-05-20T21:45:57.591Z,15.58
2023-05-20T21:48:24.064Z,16.06
2023-05-20T21:50:50.417Z,15.98
2023-05-20T21:53:16.740Z,15.77
2023-05-20T21:55:43.070Z,16.58
2023-05-20T21:58:09.428Z,15.50
2023-05-20T22:00:35.813Z,15.91
2023-05-20T22:03:02.625Z,15.45
2023-05-20T22:05:28.988Z,15.65
2023-05-20T22:07:55.314Z,15.64
2023-05-20T22:10:23.325Z,15.53
2023-05-20T22:12:49.887Z,15.30
2023-05-20T22:15:16.194Z,15.62
2023-05-20T22:17:42.577Z,15.16
2023-05-20T22:20:08.956Z,15.52
2023-05-20T22:22:35.280Z,15.87
2023-05-20T22:25:01.624Z,15.66
2023-05-20T22:27:27.944Z,15.59
2023-05-20T22:29:54.265Z,16.03
2023-05-20T22:32:20.635Z,15.49
2023-05-20T22:34:46.949Z,16.01
2023-05-20T22:37:13.296Z,15.51
2023-05-20T22:39:39.619Z,15.52
2023-05-20T22:42:05.954Z,14.88
2023-05-20T22:44:32.283Z,15.95
2023-05-20T22:46:58.614Z,16.09
2023-05-20T22:49:24.914Z,16.50
2023-05-20T22:51:51.249Z,15.86
2023-05-20T22:54:17.599Z,16.01
2023-05-20T22:56:43.934Z,16.12
2023-05-20T22:59:10.281Z,17.04
2023-05-20T23:01:36.727Z,16.44
2023-05-20T23:04:03.134Z,16.52
2023-05-20T23:06:29.523Z,16.34
2023-05-20T23:08:55.830Z,16.03
2023-05-20T23:11:22.169Z,17.07
2023-05-20T23:13:48.532Z,16.91
2023-05-20T23:16:14.872Z,16.59
2023-05-20T23:18:41.255Z,16.57
2023-05-20T23:21:07.581Z,16.49
2023-05-20T23:23:33.891Z,16.50
2023-05-20T23:26:00.382Z,16.98
2023-05-20T23:28:26.785Z,16.51
2023-05-20T23:30:53.099Z,17.07
2023-05-20T23:33:24.401Z,16.87
2023-05-20T23:35:51.614Z,17.52
2023-05-20T23:38:18.129Z,16.94
2023-05-20T23:40:44.469Z,18.06
2023-05-20T23:43:10.788Z,17.54
2023-05-20T23:45:37.297Z,17.67
2023-05-20T23:48:03.898Z,16.53
2023-05-20T23:50:30.257Z,16.74
2023-05-20T23:52:56.575Z,17.64
2023-05-20T23:55:22.924Z,16.80
2023-05-20T23:57:49.245Z,16.73
